createdAt,value
2018-06-29T00:02:48.655Z,101861.66
2018-06-29T00:05:53.050Z,101863.32
2018-06-29T00:08:57.533Z,101863.27
2018-06-29T00:12:01.958Z,101857.90
2018-06-29T00:15:06.302Z,101861.28
2018-06-29T00:18:10.669Z,101863.84
2018-06-29T00:21:14.985Z,101855.44
2018-06-29T00:24:19.574Z,101847.47
2018-06-29T00:27:24.572Z,101844.72
2018-06-29T00:30:29.997Z,101837.23
2018-06-29T00:33:34.343Z,101840.66
2018-06-29T00:36:38.599Z,101834.91
2018-06-29T00:39:42.940Z,101836.11
2018-06-29T00:42:47.247Z,101838.52
2018-06-29T00:45:51.608Z,101840.58
2018-06-29T00:48:55.896Z,101847.05
2018-06-29T00:52:00.241Z,101850.47
2018-06-29T00:55:04.757Z,101847.73
2018-06-29T00:58:08.933Z,101856.78
2018-06-29T01:01:13.299Z,101851.97
2018-06-29T01:04:17.623Z,101859.83
2018-06-29T01:07:22.128Z,101858.95
2018-06-29T01:10:26.462Z,101853.59
2018-06-29T01:13:30.757Z,101856.97
2018-06-29T01:16:35.155Z,101853.34
2018-06-29T01:19:39.488Z,101847.89
2018-06-29T01:22:43.741Z,101849.67
2018-06-29T01:25:48.118Z,101843.43
2018-06-29T01:28:52.455Z,101849.05
2018-06-29T01:31:56.944Z,101845.91
2018-06-29T01:35:01.325Z,101843.07
2018-06-29T01:38:05.680Z,101838.27
2018-06-29T01:41:10.073Z,101828.54
2018-06-29T01:44:14.357Z,101825.00
2018-06-29T01:47:18.724Z,101821.03
2018-06-29T01:50:23.122Z,101820.50
2018-06-29T01:53:27.405Z,101812.91
2018-06-29T01:56:31.708Z,101812.80
2018-06-29T01:59:36.057Z,101816.68
2018-06-29T02:02:40.398Z,101817.95
2018-06-29T02:05:44.723Z,101808.25
2018-06-29T02:08:49.031Z,101810.33
2018-06-29T02:11:53.343Z,101808.11
2018-06-29T02:14:57.679Z,101800.66
2018-06-29T02:18:01.948Z,101798.45
2018-06-29T02:21:06.342Z,101798.36
2018-06-29T02:24:10.632Z,101793.09
2018-06-29T02:27:15.048Z,101778.70
2018-06-29T02:30:19.462Z,101768.98
2018-06-29T02:33:23.685Z,101755.58
2018-06-29T02:36:28.004Z,101750.25
2018-06-29T02:39:32.274Z,101744.24
2018-06-29T02:42:37.584Z,101748.08
2018-06-29T02:45:42.087Z,101744.98
2018-06-29T02:48:46.388Z,101737.63
2018-06-29T02:51:50.649Z,101737.63
2018-06-29T02:54:55.089Z,101740.23
2018-06-29T02:57:59.500Z,101733.22
2018-06-29T03:01:03.877Z,101728.95
2018-06-29T03:04:08.194Z,101722.81
2018-06-29T03:07:12.519Z,101724.16
2018-06-29T03:10:16.793Z,101719.80
2018-06-29T03:13:21.132Z,101719.76
2018-06-29T03:16:26.428Z,101718.55
2018-06-29T03:19:30.753Z,101707.70
2018-06-29T03:22:35.153Z,101704.56
2018-06-29T03:25:39.451Z,101706.75
2018-06-29T03:28:43.781Z,101707.52
2018-06-29T03:31:48.056Z,101712.00
2018-06-29T03:34:52.456Z,101714.44
2018-06-29T03:37:56.833Z,101708.70
2018-06-29T03:41:01.094Z,101711.77
2018-06-29T03:44:05.599Z,101715.00
2018-06-29T03:47:09.844Z,101709.73
2018-06-29T03:50:14.121Z,101709.13
2018-06-29T03:53:18.425Z,101710.29
2018-06-29T03:56:22.700Z,101714.08
2018-06-29T03:59:26.961Z,101708.64
2018-06-29T04:02:31.313Z,101707.28
2018-06-29T04:05:35.600Z,101712.14
2018-06-29T04:08:39.922Z,101722.70
2018-06-29T04:11:44.367Z,101714.05
2018-06-29T04:14:48.688Z,101705.40
2018-06-29T04:17:52.994Z,101699.66
2018-06-29T04:20:57.400Z,101696.45
2018-06-29T04:24:01.964Z,101704.00
2018-06-29T04:27:06.377Z,101708.23
2018-06-29T04:30:10.796Z,101701.34
2018-06-29T04:33:15.148Z,101693.34
2018-06-29T04:36:19.512Z,101693.72
2018-06-29T04:39:23.828Z,101698.02
2018-06-29T04:42:28.108Z,101689.62
2018-06-29T04:45:32.475Z,101687.47
2018-06-29T04:48:36.965Z,101680.38
2018-06-29T04:51:41.310Z,101683.44
2018-06-29T04:54:45.668Z,101680.89
2018-06-29T04:57:49.987Z,101673.23
2018-06-29T05:00:54.369Z,101682.84
2018-06-29T05:04:02.866Z,101677.16
2018-06-29T05:07:07.212Z,101683.34
2018-06-29T05:10:11.515Z,101689.55
2018-06-29T05:13:15.780Z,101699.84
2018-06-29T05:16:20.053Z,101699.98
2018-06-29T05:19:29.325Z,101690.89
2018-06-29T05:22:33.638Z,101681.74
2018-06-29T05:25:37.962Z,101696.66
2018-06-29T05:28:42.270Z,101694.61
2018-06-29T05:31:46.578Z,101695.16
2018-06-29T05:34:50.825Z,101693.00
2018-06-29T05:37:55.215Z,101692.66
2018-06-29T05:40:59.711Z,101694.49
2018-06-29T05:44:04.804Z,101686.69
2018-06-29T05:47:09.251Z,101682.79
2018-06-29T05:50:13.662Z,101694.72
2018-06-29T05:53:18.065Z,101689.54
2018-06-29T05:56:22.370Z,101685.66
2018-06-29T05:59:26.696Z,101688.73
2018-06-29T06:02:31.086Z,101690.09
2018-06-29T06:05:35.386Z,101694.09
2018-06-29T06:08:39.840Z,101693.24
2018-06-29T06:11:44.193Z,101697.25
2018-06-29T06:14:48.616Z,101696.87
2018-06-29T06:17:53.097Z,101696.91
2018-06-29T06:20:57.539Z,101700.45
2018-06-29T06:24:01.872Z,101693.94
2018-06-29T06:27:06.169Z,101679.98
2018-06-29T06:30:10.557Z,101694.91
2018-06-29T06:33:15.047Z,101692.73
2018-06-29T06:36:19.225Z,101698.00
2018-06-29T06:39:23.594Z,101697.17
2018-06-29T06:42:28.055Z,101702.44
2018-06-29T06:45:32.563Z,101697.20
2018-06-29T06:48:36.917Z,101700.70
2018-06-29T06:51:41.484Z,101696.75
2018-06-29T06:54:46.010Z,101685.80
2018-06-29T06:57:50.605Z,101691.50
2018-06-29T07:00:54.970Z,101695.45
2018-06-29T07:03:59.461Z,101691.91
2018-06-29T07:07:03.884Z,101690.55
2018-06-29T07:10:08.249Z,101683.06
2018-06-29T07:13:12.604Z,101682.55
2018-06-29T07:16:16.959Z,101684.74
2018-06-29T07:19:21.465Z,101689.97
2018-06-29T07:22:25.902Z,101689.97
2018-06-29T07:25:30.234Z,101691.28
2018-06-29T07:28:34.529Z,101688.53
2018-06-29T07:31:38.819Z,101676.57
2018-06-29T07:34:43.191Z,101679.56
2018-06-29T07:37:47.551Z,101675.98
2018-06-29T07:40:51.872Z,101672.91
2018-06-29T07:43:56.330Z,101670.17
2018-06-29T07:47:00.630Z,101678.45
2018-06-29T07:50:05.875Z,101681.00
2018-06-29T07:53:10.276Z,101677.34
2018-06-29T07:56:14.681Z,101676.33
2018-06-29T07:59:19.231Z,101687.69
2018-06-29T08:02:23.766Z,101681.82
2018-06-29T08:05:28.086Z,101690.44
2018-06-29T08:08:32.698Z,101688.61
2018-06-29T08:11:37.312Z,101693.30
2018-06-29T08:14:41.703Z,101689.28
2018-06-29T08:17:46.423Z,101683.86
2018-06-29T08:20:50.990Z,101688.58
2018-06-29T08:23:55.816Z,101688.98
2018-06-29T08:27:00.288Z,101693.31
2018-06-29T08:30:05.118Z,101681.70
2018-06-29T08:33:09.731Z,101685.96
2018-06-29T08:36:14.094Z,101681.44
2018-06-29T08:39:18.632Z,101682.98
2018-06-29T08:42:23.293Z,101684.19
2018-06-29T08:45:27.609Z,101674.66
2018-06-29T08:48:32.203Z,101674.41
2018-06-29T08:51:36.544Z,101674.19
2018-06-29T08:54:40.894Z,101677.57
2018-06-29T08:57:45.512Z,101678.31
2018-06-29T09:00:50.211Z,101683.47
2018-06-29T09:03:54.850Z,101684.65
2018-06-29T09:06:59.229Z,101682.06
2018-06-29T09:10:03.575Z,101683.11
2018-06-29T09:13:08.120Z,101686.67
2018-06-29T09:16:12.312Z,101685.89
2018-06-29T09:19:17.063Z,101677.90
2018-06-29T09:22:21.363Z,101686.23
2018-06-29T09:25:26.253Z,101691.14
2018-06-29T09:28:31.094Z,101692.27
2018-06-29T09:31:40.041Z,101691.50
2018-06-29T09:34:44.702Z,101701.89
2018-06-29T09:37:49.005Z,101691.06
2018-06-29T09:40:53.814Z,101694.48
2018-06-29T09:43:58.419Z,101695.38
2018-06-29T09:47:02.897Z,101690.98
2018-06-29T09:50:07.384Z,101691.59
2018-06-29T09:53:11.705Z,101686.61
2018-06-29T09:56:16.218Z,101689.45
2018-06-29T09:59:20.613Z,101692.22
2018-06-29T10:02:31.688Z,101692.80
2018-06-29T10:05:29.750Z,101688.98
2018-06-29T10:08:34.056Z,101691.06
2018-06-29T10:11:38.512Z,101698.31
2018-06-29T10:14:43.410Z,101694.13
2018-06-29T10:17:47.755Z,101699.09
2018-06-29T10:20:52.084Z,101703.12
2018-06-29T10:23:56.691Z,101696.59
2018-06-29T10:27:05.355Z,101707.75
2018-06-29T10:30:10.354Z,101704.52
2018-06-29T10:33:16.469Z,101704.49
2018-06-29T10:36:20.806Z,101703.16
2018-06-29T10:39:25.478Z,101709.04
2018-06-29T10:42:30.520Z,101704.59
2018-06-29T10:45:35.392Z,101703.64
2018-06-29T10:48:39.909Z,101702.02
2018-06-29T10:51:44.229Z,101707.13
2018-06-29T10:54:48.803Z,101696.91
2018-06-29T10:57:53.203Z,101710.38
2018-06-29T11:00:57.798Z,101715.02
2018-06-29T11:04:04.586Z,101706.20
2018-06-29T11:07:12.902Z,101712.54
2018-06-29T11:10:17.973Z,101711.30
2018-06-29T11:13:22.419Z,101706.73
2018-06-29T11:16:27.116Z,101703.06
2018-06-29T11:19:32.916Z,101700.63
2018-06-29T11:22:37.358Z,101694.82
2018-06-29T11:25:42.366Z,101697.68
2018-06-29T11:28:46.852Z,101706.58
2018-06-29T11:31:51.411Z,101703.83
2018-06-29T11:34:56.007Z,101700.12
2018-06-29T11:38:00.393Z,101704.39
2018-06-29T11:41:05.481Z,101697.50
2018-06-29T11:44:10.467Z,101708.11
2018-06-29T11:47:14.950Z,101695.31
2018-06-29T11:50:19.536Z,101704.34
2018-06-29T11:53:23.904Z,101707.64
2018-06-29T11:56:28.204Z,101705.58
2018-06-29T11:59:32.453Z,101709.26
2018-06-29T12:02:36.869Z,101702.13
2018-06-29T12:05:41.346Z,101696.34
2018-06-29T12:08:46.089Z,101697.77
2018-06-29T12:11:50.702Z,101700.37
2018-06-29T12:14:55.300Z,101693.91
2018-06-29T12:17:59.838Z,101699.41
2018-06-29T12:21:04.237Z,101704.21
2018-06-29T12:24:09.286Z,101704.03
2018-06-29T12:27:14.036Z,101701.48
2018-06-29T12:30:18.539Z,101700.34
2018-06-29T12:33:23.271Z,101698.63
2018-06-29T12:36:27.966Z,101693.78
2018-06-29T12:39:32.507Z,101698.25
2018-06-29T12:42:37.160Z,101692.75
2018-06-29T12:45:41.763Z,101682.48
2018-06-29T12:48:46.835Z,101678.41
2018-06-29T12:51:51.335Z,101684.50
2018-06-29T12:54:55.991Z,101679.87
2018-06-29T12:58:00.723Z,101673.60
2018-06-29T13:01:05.232Z,101680.20
2018-06-29T13:04:09.618Z,101681.09
2018-06-29T13:07:14.292Z,101674.63
2018-06-29T13:10:18.974Z,101678.02
2018-06-29T13:13:23.644Z,101678.92
2018-06-29T13:16:29.474Z,101672.73
2018-06-29T13:19:34.151Z,101674.80
2018-06-29T13:22:39.231Z,101674.13
2018-06-29T13:25:43.979Z,101674.16
2018-06-29T13:28:48.916Z,101681.14
2018-06-29T13:31:55.638Z,101674.02
2018-06-29T13:35:00.492Z,101671.91
2018-06-29T13:38:05.756Z,101674.83
2018-06-29T13:41:10.669Z,101674.64
2018-06-29T13:44:15.335Z,101675.34
2018-06-29T13:47:19.945Z,101674.31
2018-06-29T13:50:24.594Z,101660.18
2018-06-29T13:53:29.488Z,101664.72
2018-06-29T13:56:34.132Z,101663.13
2018-06-29T13:59:38.839Z,101662.34
2018-06-29T14:02:43.636Z,101652.72
2018-06-29T14:05:49.174Z,101651.64
2018-06-29T14:08:54.433Z,101658.10
2018-06-29T14:11:59.062Z,101652.59
2018-06-29T14:15:03.937Z,101652.48
2018-06-29T14:18:12.048Z,101658.88
2018-06-29T14:21:16.773Z,101650.15
2018-06-29T14:24:22.018Z,101655.67
2018-06-29T14:27:28.715Z,101655.88
2018-06-29T14:30:33.363Z,101653.08
2018-06-29T14:33:38.055Z,101647.76
2018-06-29T14:36:42.822Z,101646.30
2018-06-29T14:39:47.380Z,101640.00
2018-06-29T14:42:52.617Z,101640.78
2018-06-29T14:45:57.779Z,101638.98
2018-06-29T14:49:02.321Z,101635.93
2018-06-29T14:52:07.175Z,101636.86
2018-06-29T14:55:11.662Z,101636.75
2018-06-29T14:58:17.346Z,101644.81
2018-06-29T15:01:23.466Z,101640.83
2018-06-29T15:04:28.440Z,101643.02
2018-06-29T15:07:33.530Z,101634.49
2018-06-29T15:10:38.171Z,101639.63
2018-06-29T15:13:43.306Z,101643.20
2018-06-29T15:16:48.061Z,101639.91
2018-06-29T15:19:53.075Z,101641.65
2018-06-29T15:22:57.893Z,101639.49
2018-06-29T15:26:03.937Z,101635.20
2018-06-29T15:29:08.614Z,101637.98
2018-06-29T15:32:13.173Z,101631.62
2018-06-29T15:35:18.141Z,101628.64
2018-06-29T15:38:22.877Z,101625.41
2018-06-29T15:41:27.607Z,101618.45
2018-06-29T15:44:32.240Z,101625.57
2018-06-29T15:47:37.101Z,101631.80
2018-06-29T15:50:41.645Z,101631.94
2018-06-29T15:53:46.437Z,101624.78
2018-06-29T15:56:50.990Z,101630.75
2018-06-29T15:59:55.925Z,101630.81
2018-06-29T16:03:00.432Z,101635.81
2018-06-29T16:06:05.439Z,101631.84
2018-06-29T16:09:10.658Z,101629.73
2018-06-29T16:12:15.207Z,101624.17
2018-06-29T16:15:19.818Z,101629.41
2018-06-29T16:18:24.476Z,101625.53
2018-06-29T16:21:29.041Z,101621.92
2018-06-29T16:24:33.568Z,101627.28
2018-06-29T16:27:38.206Z,101617.51
2018-06-29T16:30:42.886Z,101622.64
2018-06-29T16:33:47.759Z,101621.20
2018-06-29T16:36:52.398Z,101619.53
2018-06-29T16:39:57.018Z,101616.44
2018-06-29T16:43:01.490Z,101618.17
2018-06-29T16:46:06.757Z,101621.48
2018-06-29T16:49:11.525Z,101619.48
2018-06-29T16:52:16.252Z,101619.22
2018-06-29T16:55:20.877Z,101613.48
2018-06-29T16:58:25.554Z,101619.01
2018-06-29T17:01:30.068Z,101622.28
2018-06-29T17:04:34.656Z,101619.91
2018-06-29T17:07:39.279Z,101623.72
2018-06-29T17:10:43.789Z,101616.55
2018-06-29T17:13:48.628Z,101616.57
2018-06-29T17:16:53.178Z,101623.27
2018-06-29T17:19:59.043Z,101618.67
2018-06-29T17:23:03.670Z,101623.37
2018-06-29T17:26:08.493Z,101633.63
2018-06-29T17:29:13.500Z,101624.59
2018-06-29T17:32:18.396Z,101630.23
2018-06-29T17:35:22.968Z,101631.63
2018-06-29T17:38:27.775Z,101630.37
2018-06-29T17:41:32.536Z,101627.57
2018-06-29T17:44:37.025Z,101634.34
2018-06-29T17:47:41.706Z,101631.88
2018-06-29T17:50:46.506Z,101633.83
2018-06-29T17:53:50.984Z,101633.99
2018-06-29T17:56:55.510Z,101634.61
2018-06-29T18:00:00.355Z,101640.11
2018-06-29T18:03:04.863Z,101636.25
2018-06-29T18:06:09.389Z,101641.63
2018-06-29T18:09:13.854Z,101638.70
2018-06-29T18:12:18.341Z,101649.38
2018-06-29T18:15:22.772Z,101651.67
2018-06-29T18:18:27.213Z,101650.89
2018-06-29T18:21:31.729Z,101652.70
2018-06-29T18:24:36.244Z,101654.09
2018-06-29T18:27:40.767Z,101655.04
2018-06-29T18:30:45.322Z,101658.20
2018-06-29T18:33:50.050Z,101656.05
2018-06-29T18:36:54.761Z,101659.62
2018-06-29T18:39:59.382Z,101663.19
2018-06-29T18:43:03.928Z,101665.02
2018-06-29T18:46:08.556Z,101665.04
2018-06-29T18:49:13.081Z,101665.13
2018-06-29T18:52:17.799Z,101661.64
2018-06-29T18:55:22.460Z,101659.02
2018-06-29T18:58:27.378Z,101659.09
2018-06-29T19:01:32.372Z,101665.73
2018-06-29T19:04:36.969Z,101671.50
2018-06-29T19:07:41.546Z,101668.01
2018-06-29T19:10:46.077Z,101668.45
2018-06-29T19:13:50.688Z,101670.26
2018-06-29T19:16:55.269Z,101672.05
2018-06-29T19:19:59.471Z,101671.19
2018-06-29T19:23:04.151Z,101675.16
2018-06-29T19:26:08.647Z,101669.48
2018-06-29T19:29:13.435Z,101669.50
2018-06-29T19:32:18.100Z,101673.48
2018-06-29T19:35:22.709Z,101674.37
2018-06-29T19:38:27.329Z,101677.89
2018-06-29T19:41:31.939Z,101679.66
2018-06-29T19:44:36.638Z,101680.52
2018-06-29T19:47:41.200Z,101681.82
2018-06-29T19:50:45.803Z,101685.78
2018-06-29T19:53:50.340Z,101689.72
2018-06-29T19:56:55.026Z,101687.53
2018-06-29T19:59:59.826Z,101685.75
2018-06-29T20:03:04.433Z,101699.31
2018-06-29T20:06:08.942Z,101697.14
2018-06-29T20:09:14.005Z,101703.23
2018-06-29T20:12:18.431Z,101701.91
2018-06-29T20:15:23.028Z,101704.53
2018-06-29T20:18:27.672Z,101702.69
2018-06-29T20:21:32.574Z,101697.34
2018-06-29T20:24:37.088Z,101701.26
2018-06-29T20:27:41.613Z,101705.15
2018-06-29T20:30:46.159Z,101712.64
2018-06-29T20:33:50.744Z,101706.47
2018-06-29T20:36:55.131Z,101711.67
2018-06-29T20:39:59.764Z,101712.08
2018-06-29T20:43:04.299Z,101713.31
2018-06-29T20:46:08.926Z,101715.83
2018-06-29T20:49:13.502Z,101718.22
2018-06-29T20:52:18.244Z,101724.19
2018-06-29T20:55:22.853Z,101722.29
2018-06-29T20:58:27.510Z,101734.05
2018-06-29T21:01:32.109Z,101734.05
2018-06-29T21:04:36.793Z,101739.56
2018-06-29T21:07:41.230Z,101741.17
2018-06-29T21:10:45.764Z,101744.55
2018-06-29T21:13:50.407Z,101749.59
2018-06-29T21:16:54.956Z,101746.81
2018-06-29T21:19:59.474Z,101747.62
2018-06-29T21:23:04.014Z,101743.66
2018-06-29T21:26:08.670Z,101743.98
2018-06-29T21:29:13.108Z,101751.81
2018-06-29T21:32:17.654Z,101750.83
2018-06-29T21:35:22.218Z,101750.83
2018-06-29T21:38:26.782Z,101753.81
2018-06-29T21:41:31.382Z,101755.05
2018-06-29T21:44:36.036Z,101756.28
2018-06-29T21:47:40.830Z,101755.37
2018-06-29T21:50:45.458Z,101759.66
2018-06-29T21:53:50.073Z,101767.42
2018-06-29T21:56:54.829Z,101766.04
2018-06-29T21:59:59.549Z,101775.99
2018-06-29T22:03:10.364Z,101772.38
2018-06-29T22:06:14.852Z,101778.84
2018-06-29T22:09:19.513Z,101778.76
2018-06-29T22:12:24.082Z,101783.47
2018-06-29T22:15:29.773Z,101779.41
2018-06-29T22:18:34.471Z,101781.94
2018-06-29T22:21:39.087Z,101790.60
2018-06-29T22:24:43.680Z,101791.00
2018-06-29T22:27:48.729Z,101797.88
2018-06-29T22:30:53.394Z,101795.53
2018-06-29T22:33:58.007Z,101799.39
2018-06-29T22:37:02.638Z,101797.55
2018-06-29T22:40:08.004Z,101795.67
2018-06-29T22:43:12.569Z,101796.33
2018-06-29T22:46:17.748Z,101796.95
2018-06-29T22:49:22.164Z,101801.59
2018-06-29T22:52:26.794Z,101796.70
2018-06-29T22:55:31.372Z,101797.95
2018-06-29T22:58:35.901Z,101797.41
2018-06-29T23:01:40.562Z,101790.87
2018-06-29T23:04:45.143Z,101793.97
2018-06-29T23:07:49.882Z,101798.23
2018-06-29T23:10:54.414Z,101801.92
2018-06-29T23:13:59.185Z,101791.25
2018-06-29T23:17:03.753Z,101799.77
2018-06-29T23:20:08.623Z,101800.11
2018-06-29T23:23:13.146Z,101793.13
2018-06-29T23:26:17.813Z,101800.41
2018-06-29T23:29:22.293Z,101795.51
2018-06-29T23:32:26.909Z,101796.81
2018-06-29T23:35:31.408Z,101792.98
2018-06-29T23:38:35.886Z,101793.37
2018-06-29T23:41:40.616Z,101800.52
2018-06-29T23:44:45.214Z,101797.02
2018-06-29T23:47:49.854Z,101801.27
2018-06-29T23:50:54.430Z,101797.67
2018-06-29T23:53:59.313Z,101800.17
2018-06-29T23:57:03.833Z,101799.30
